Flight Track Log - Related Links

Times and Time Zones

All times are in EDT time to prevent confusion due to time zone crossing. See the PDT4155 flight status page for this flight to view local times or setup timezone preferences in your user account.

Time Position Orientation Groundspeed Altitude Reporting Facility
EDT Latitude Longitude Course Direction KTS MPH feet Rate Location/Type
Fri 07:10:00 AM 42.0348 -75.9228 180° South  Level Estimated
Fri 07:11:00 AM 41.9753 -75.9250 182° South  Level FlightAware Approximate
Fri 07:12:00 AM 41.9158 -75.9272 182° South  Level FlightAware Approximate
Fri 07:13:00 AM 41.8562 -75.9294 182° South  Level FlightAware Approximate
Fri 07:14:00 AM 41.7987 -75.9088 154° Southeast  Level Estimated
Fri 07:15:00 AM 41.7411 -75.8883 160° South  Level Estimated
Fri 07:16:00 AM 41.6836 -75.8678 159° South  Level Estimated
Fri 07:17:00 AM 41.6262 -75.8465 165° South  Level FlightAware Approximate
Fri 07:18:00 AM 41.5686 -75.8261 153° Southeast  Level Estimated
Fri 07:19:00 AM 41.5111 -75.8058 161° South  Level Estimated
Fri 07:20:00 AM 41.4553 -75.7777 159° South  Level FlightAware Approximate
Fri 07:21:00 AM 41.3996 -75.7498 159° South  Level FlightAware Approximate
Fri 07:22:00 AM 41.3419 -75.7301 162° South  Level Estimated
Fri 07:23:00 AM 41.2859 -75.7032 160° South  Level FlightAware Approximate
Fri 07:24:00 AM 41.2299 -75.6764 160° South  Level FlightAware Approximate
Fri 07:25:00 AM 41.1738 -75.6496 160° South  Level FlightAware Approximate
Fri 07:26:00 AM 41.1178 -75.6228 160° South  Level FlightAware Approximate
Fri 07:27:00 AM 41.0598 -75.6047 159° South  Level Estimated
Fri 07:28:00 AM 41.0019 -75.5866 163° South  Level Estimated
Fri 07:29:00 AM 40.9459 -75.5597 160° South  Level FlightAware Approximate
Fri 07:30:00 AM 40.8899 -75.5328 160° South  Level FlightAware Approximate
Fri 07:31:00 AM 40.8339 -75.5060 160° South  Level FlightAware Approximate
Fri 07:32:00 AM 40.7757 -75.4897 190° South  Level Estimated
Fri 07:33:00 AM 40.7161 -75.4920 182° South  Level FlightAware Approximate
Fri 07:34:00 AM 40.6566 -75.4942 182° South  Level FlightAware Approximate
Fri 07:35:00 AM 40.5971 -75.4964 182° South  Level FlightAware Approximate
Fri 07:36:00 AM 40.5396 -75.4759 187° South  Level Estimated
Fri 07:37:00 AM 40.4821 -75.4555 190° South  Level Estimated
Fri 07:37:28 AM 40.5667 -75.5667 143° Southeast 245 282 7,000  Level Philadelphia TRACON
Fri 07:38:00 AM 40.4252 -75.4787 197° South  Level FlightAware Approximate
Fri 07:38:58 AM 40.4667 -75.5667 180° South 253 291 6,000  Level Philadelphia TRACON
Fri 07:39:00 AM 40.3683 -75.5019 197° South  Level FlightAware Approximate
Fri 07:39:58 AM 40.4000 -75.5667 180° South 252 290 5,300  Level Philadelphia TRACON
Fri 07:40:00 AM 40.3131 -75.4726 180° South  Level Estimated
Fri 07:41:00 AM 40.2579 -75.4434 143° Southeast  Level Estimated
Fri 07:41:04 AM 40.3167 -75.5667 180° South 242 278 5,000  Level Philadelphia TRACON
Fri 07:41:46 AM 40.2833 -75.5667 180° South 232 267 5,000 -111 Level Philadelphia TRACON
Fri 07:42:00 AM 40.2027 -75.4143 143° Southeast  Level Estimated
Fri 07:42:52 AM 40.2000 -75.5500 171° South 235 270 4,800  Level Philadelphia TRACON
Fri 07:43:52 AM 40.1833 -75.4667 105° East 237 273 4,200 -400 Descending Philadelphia TRACON
Fri 07:44:52 AM 40.1833 -75.3833 90° East 230 265 4,000 -104 Descending Philadelphia TRACON
Fri 07:45:47 AM 40.1667 -75.3167 108° East 222 255 4,000  Level Philadelphia TRACON
Fri 07:46:47 AM 40.1333 -75.2667 131° Southeast 224 258 4,000  Level Philadelphia TRACON
Fri 07:47:52 AM 40.0667 -75.2333 159° South 218 251 4,000  Level Philadelphia TRACON
Fri 07:48:47 AM 40.0167 -75.2000 153° Southeast 215 247 4,000  Level Philadelphia TRACON
Fri 07:49:59 AM 39.9500 -75.1667 159° South 212 244 4,000 -364 Level Philadelphia TRACON
Fri 07:50:59 AM 39.8833 -75.1500 169° South 211 243 3,200 -1,095 Descending Philadelphia TRACON
Fri 07:52:05 AM 39.8333 -75.1333 166° South 183 211 1,700 -889 Descending Philadelphia TRACON
Fri 07:52:47 AM 39.8167 -75.1667 237° Southwest 190 219 1,600 -471 Descending Philadelphia TRACON
Fri 07:53:47 AM 39.8333 -75.2167 293° West 151 174 900 -700 Descending Philadelphia TRACON

Login

Don't have an account? Register now (free) for customized features, flight alerts, and more!